sensor_id;sensor_type;location;lat;lon;timestamp;temperature;humidity
40868;DHT22;26586;50.708;22.412;2023-04-03T00:00:31;14.90;54.00
40868;DHT22;26586;50.708;22.412;2023-04-03T00:03:14;14.90;51.10
40868;DHT22;26586;50.708;22.412;2023-04-03T00:05:40;14.90;52.60
40868;DHT22;26586;50.708;22.412;2023-04-03T00:08:07;14.90;52.40
40868;DHT22;26586;50.708;22.412;2023-04-03T00:10:36;14.80;52.70
40868;DHT22;26586;50.708;22.412;2023-04-03T00:13:05;14.80;58.70
40868;DHT22;26586;50.708;22.412;2023-04-03T00:15:31;14.80;51.70
40868;DHT22;26586;50.708;22.412;2023-04-03T00:17:58;14.80;53.20
40868;DHT22;26586;50.708;22.412;2023-04-03T00:20:24;14.80;53.30
40868;DHT22;26586;50.708;22.412;2023-04-03T00:22:51;14.70;52.40
40868;DHT22;26586;50.708;22.412;2023-04-03T00:25:17;14.80;54.50
40868;DHT22;26586;50.708;22.412;2023-04-03T00:27:44;14.70;57.20
40868;DHT22;26586;50.708;22.412;2023-04-03T00:30:13;14.70;51.20
40868;DHT22;26586;50.708;22.412;2023-04-03T00:32:39;14.70;53.70
40868;DHT22;26586;50.708;22.412;2023-04-03T00:35:06;14.70;55.00
40868;DHT22;26586;50.708;22.412;2023-04-03T00:37:32;14.70;55.00
40868;DHT22;26586;50.708;22.412;2023-04-03T00:39:58;14.70;56.10
40868;DHT22;26586;50.708;22.412;2023-04-03T00:42:25;14.70;54.60
40868;DHT22;26586;50.708;22.412;2023-04-03T00:47:24;14.70;54.40
40868;DHT22;26586;50.708;22.412;2023-04-03T00:49:52;14.70;52.50
40868;DHT22;26586;50.708;22.412;2023-04-03T00:52:21;14.60;58.20
40868;DHT22;26586;50.708;22.412;2023-04-03T00:54:52;14.60;50.90
40868;DHT22;26586;50.708;22.412;2023-04-03T00:57:21;14.60;57.30
40868;DHT22;26586;50.708;22.412;2023-04-03T00:59:55;14.60;52.40
40868;DHT22;26586;50.708;22.412;2023-04-03T01:02:24;14.60;53.10
40868;DHT22;26586;50.708;22.412;2023-04-03T01:04:50;14.60;56.40
40868;DHT22;26586;50.708;22.412;2023-04-03T01:07:22;14.60;55.00
40868;DHT22;26586;50.708;22.412;2023-04-03T01:09:53;14.60;53.80
40868;DHT22;26586;50.708;22.412;2023-04-03T01:12:30;14.60;61.20
40868;DHT22;26586;50.708;22.412;2023-04-03T01:14:59;14.50;59.80
40868;DHT22;26586;50.708;22.412;2023-04-03T01:17:31;14.60;59.20
40868;DHT22;26586;50.708;22.412;2023-04-03T01:25:32;14.50;52.50
40868;DHT22;26586;50.708;22.412;2023-04-03T01:27:58;14.50;50.30
40868;DHT22;26586;50.708;22.412;2023-04-03T01:30:30;14.50;55.20
40868;DHT22;26586;50.708;22.412;2023-04-03T01:32:57;14.50;52.60
40868;DHT22;26586;50.708;22.412;2023-04-03T01:35:23;14.40;51.00
40868;DHT22;26586;50.708;22.412;2023-04-03T01:37:50;14.40;49.10
40868;DHT22;26586;50.708;22.412;2023-04-03T01:40:16;14.40;53.00
40868;DHT22;26586;50.708;22.412;2023-04-03T01:42:42;14.30;52.00
40868;DHT22;26586;50.708;22.412;2023-04-03T01:45:09;14.30;53.10
40868;DHT22;26586;50.708;22.412;2023-04-03T01:47:35;14.30;55.00
40868;DHT22;26586;50.708;22.412;2023-04-03T01:50:02;14.30;55.80
40868;DHT22;26586;50.708;22.412;2023-04-03T01:52:28;14.30;54.60
40868;DHT22;26586;50.708;22.412;2023-04-03T01:54:54;14.30;49.30
40868;DHT22;26586;50.708;22.412;2023-04-03T01:57:21;14.30;54.20
40868;DHT22;26586;50.708;22.412;2023-04-03T01:59:47;14.30;53.90
40868;DHT22;26586;50.708;22.412;2023-04-03T02:02:13;14.30;56.00
40868;DHT22;26586;50.708;22.412;2023-04-03T02:04:40;14.30;52.00
40868;DHT22;26586;50.708;22.412;2023-04-03T02:07:07;14.30;51.50
40868;DHT22;26586;50.708;22.412;2023-04-03T02:09:33;14.30;58.30
40868;DHT22;26586;50.708;22.412;2023-04-03T02:11:59;14.30;53.50
40868;DHT22;26586;50.708;22.412;2023-04-03T02:14:25;14.20;53.60
40868;DHT22;26586;50.708;22.412;2023-04-03T02:16:53;14.20;54.40
40868;DHT22;26586;50.708;22.412;2023-04-03T02:19:20;14.20;55.80
40868;DHT22;26586;50.708;22.412;2023-04-03T02:21:46;14.20;57.90
40868;DHT22;26586;50.708;22.412;2023-04-03T02:24:12;14.20;56.90
40868;DHT22;26586;50.708;22.412;2023-04-03T02:26:38;14.20;56.50
40868;DHT22;26586;50.708;22.412;2023-04-03T02:29:05;14.20;56.80
40868;DHT22;26586;50.708;22.412;2023-04-03T02:31:31;14.20;55.90
40868;DHT22;26586;50.708;22.412;2023-04-03T02:33:57;14.20;55.00
40868;DHT22;26586;50.708;22.412;2023-04-03T02:36:24;14.20;52.80
40868;DHT22;26586;50.708;22.412;2023-04-03T02:38:50;14.10;54.50
40868;DHT22;26586;50.708;22.412;2023-04-03T02:41:16;14.10;56.10
40868;DHT22;26586;50.708;22.412;2023-04-03T02:43:42;14.10;54.80
40868;DHT22;26586;50.708;22.412;2023-04-03T02:46:09;14.10;54.00
40868;DHT22;26586;50.708;22.412;2023-04-03T02:48:35;14.10;54.80
40868;DHT22;26586;50.708;22.412;2023-04-03T02:51:02;14.10;55.40
40868;DHT22;26586;50.708;22.412;2023-04-03T02:53:28;14.10;51.70
40868;DHT22;26586;50.708;22.412;2023-04-03T02:55:54;14.10;51.40
40868;DHT22;26586;50.708;22.412;2023-04-03T02:58:21;14.00;51.40
40868;DHT22;26586;50.708;22.412;2023-04-03T03:00:47;14.00;52.50
40868;DHT22;26586;50.708;22.412;2023-04-03T03:03:13;14.00;54.80
40868;DHT22;26586;50.708;22.412;2023-04-03T03:05:40;14.00;60.30
40868;DHT22;26586;50.708;22.412;2023-04-03T03:08:06;14.00;57.60
40868;DHT22;26586;50.708;22.412;2023-04-03T03:10:33;14.00;54.70
40868;DHT22;26586;50.708;22.412;2023-04-03T03:12:59;14.00;58.80
40868;DHT22;26586;50.708;22.412;2023-04-03T03:15:25;13.90;56.80
40868;DHT22;26586;50.708;22.412;2023-04-03T03:17:51;13.90;52.10
40868;DHT22;26586;50.708;22.412;2023-04-03T03:20:18;14.00;52.00
40868;DHT22;26586;50.708;22.412;2023-04-03T03:22:44;13.90;57.80
40868;DHT22;26586;50.708;22.412;2023-04-03T03:25:10;13.90;55.40
40868;DHT22;26586;50.708;22.412;2023-04-03T03:27:36;13.90;56.00
40868;DHT22;26586;50.708;22.412;2023-04-03T03:30:04;13.90;56.70
40868;DHT22;26586;50.708;22.412;2023-04-03T03:32:30;13.90;56.30
40868;DHT22;26586;50.708;22.412;2023-04-03T03:34:56;13.90;53.80
40868;DHT22;26586;50.708;22.412;2023-04-03T03:37:22;13.90;58.40
40868;DHT22;26586;50.708;22.412;2023-04-03T03:39:49;13.90;59.90
40868;DHT22;26586;50.708;22.412;2023-04-03T03:42:15;13.90;53.50
40868;DHT22;26586;50.708;22.412;2023-04-03T03:44:41;13.90;56.50
40868;DHT22;26586;50.708;22.412;2023-04-03T03:47:07;13.90;54.60
40868;DHT22;26586;50.708;22.412;2023-04-03T03:49:36;13.90;53.10
40868;DHT22;26586;50.708;22.412;2023-04-03T03:52:02;13.90;62.60
40868;DHT22;26586;50.708;22.412;2023-04-03T03:54:29;13.90;57.00
40868;DHT22;26586;50.708;22.412;2023-04-03T03:56:55;13.90;54.00
40868;DHT22;26586;50.708;22.412;2023-04-03T03:59:21;13.90;53.50
40868;DHT22;26586;50.708;22.412;2023-04-03T04:01:47;13.90;56.60
40868;DHT22;26586;50.708;22.412;2023-04-03T04:04:13;13.80;56.50
40868;DHT22;26586;50.708;22.412;2023-04-03T04:06:40;13.80;57.00
40868;DHT22;26586;50.708;22.412;2023-04-03T04:09:06;13.80;55.20
40868;DHT22;26586;50.708;22.412;2023-04-03T04:11:32;13.80;55.10
40868;DHT22;26586;50.708;22.412;2023-04-03T04:13:59;13.80;54.90
40868;DHT22;26586;50.708;22.412;2023-04-03T04:16:25;13.80;58.00
40868;DHT22;26586;50.708;22.412;2023-04-03T04:18:51;13.80;57.00
40868;DHT22;26586;50.708;22.412;2023-04-03T04:21:18;13.80;58.00
40868;DHT22;26586;50.708;22.412;2023-04-03T04:23:44;13.80;63.10
40868;DHT22;26586;50.708;22.412;2023-04-03T04:26:10;13.80;59.40
40868;DHT22;26586;50.708;22.412;2023-04-03T04:28:37;13.80;52.80
40868;DHT22;26586;50.708;22.412;2023-04-03T04:31:03;13.80;56.50
40868;DHT22;26586;50.708;22.412;2023-04-03T04:33:29;13.90;54.90
40868;DHT22;26586;50.708;22.412;2023-04-03T04:35:55;13.80;67.30
40868;DHT22;26586;50.708;22.412;2023-04-03T04:38:22;13.90;55.10
40868;DHT22;26586;50.708;22.412;2023-04-03T04:40:48;13.90;59.70
40868;DHT22;26586;50.708;22.412;2023-04-03T04:43:15;13.90;57.60
40868;DHT22;26586;50.708;22.412;2023-04-03T04:45:41;13.90;53.90
40868;DHT22;26586;50.708;22.412;2023-04-03T04:48:08;14.00;53.70
40868;DHT22;26586;50.708;22.412;2023-04-03T04:50:34;14.00;57.60
40868;DHT22;26586;50.708;22.412;2023-04-03T04:53:00;14.00;57.90
40868;DHT22;26586;50.708;22.412;2023-04-03T04:55:26;14.00;59.80
40868;DHT22;26586;50.708;22.412;2023-04-03T04:57:52;14.00;62.80
40868;DHT22;26586;50.708;22.412;2023-04-03T05:00:19;14.10;59.20
40868;DHT22;26586;50.708;22.412;2023-04-03T05:02:45;14.10;56.80
40868;DHT22;26586;50.708;22.412;2023-04-03T05:05:11;14.10;54.40
40868;DHT22;26586;50.708;22.412;2023-04-03T05:07:38;14.10;57.70
40868;DHT22;26586;50.708;22.412;2023-04-03T05:10:04;14.10;64.70
40868;DHT22;26586;50.708;22.412;2023-04-03T05:12:32;14.10;56.90
40868;DHT22;26586;50.708;22.412;2023-04-03T05:14:58;14.20;58.80
40868;DHT22;26586;50.708;22.412;2023-04-03T05:17:24;14.20;59.90
40868;DHT22;26586;50.708;22.412;2023-04-03T05:19:50;14.20;59.80
40868;DHT22;26586;50.708;22.412;2023-04-03T05:22:16;14.20;61.30
40868;DHT22;26586;50.708;22.412;2023-04-03T05:24:42;14.20;54.50
40868;DHT22;26586;50.708;22.412;2023-04-03T05:27:09;14.20;59.30
40868;DHT22;26586;50.708;22.412;2023-04-03T05:29:35;14.20;63.50
40868;DHT22;26586;50.708;22.412;2023-04-03T05:32:02;14.20;55.50
40868;DHT22;26586;50.708;22.412;2023-04-03T05:34:28;14.20;53.70
40868;DHT22;26586;50.708;22.412;2023-04-03T05:36:54;14.10;55.60
40868;DHT22;26586;50.708;22.412;2023-04-03T05:39:20;14.20;54.00
40868;DHT22;26586;50.708;22.412;2023-04-03T05:41:47;14.10;49.70
40868;DHT22;26586;50.708;22.412;2023-04-03T05:44:13;14.10;53.10
40868;DHT22;26586;50.708;22.412;2023-04-03T05:46:39;14.00;50.20
40868;DHT22;26586;50.708;22.412;2023-04-03T05:49:05;14.00;50.80
40868;DHT22;26586;50.708;22.412;2023-04-03T05:51:34;14.00;54.60
40868;DHT22;26586;50.708;22.412;2023-04-03T05:54:13;14.00;50.10
40868;DHT22;26586;50.708;22.412;2023-04-03T05:56:40;13.90;49.70
40868;DHT22;26586;50.708;22.412;2023-04-03T05:59:06;13.90;48.20
40868;DHT22;26586;50.708;22.412;2023-04-03T06:01:33;13.90;52.50
40868;DHT22;26586;50.708;22.412;2023-04-03T06:04:00;13.90;47.90
40868;DHT22;26586;50.708;22.412;2023-04-03T06:06:27;13.90;56.90
40868;DHT22;26586;50.708;22.412;2023-04-03T06:09:07;13.90;50.00
40868;DHT22;26586;50.708;22.412;2023-04-03T06:11:34;13.90;54.90
40868;DHT22;26586;50.708;22.412;2023-04-03T06:14:01;13.90;53.70
40868;DHT22;26586;50.708;22.412;2023-04-03T06:16:27;13.90;56.50
40868;DHT22;26586;50.708;22.412;2023-04-03T06:18:54;13.90;53.60
40868;DHT22;26586;50.708;22.412;2023-04-03T06:21:22;13.90;64.60
40868;DHT22;26586;50.708;22.412;2023-04-03T06:23:48;14.00;64.20
40868;DHT22;26586;50.708;22.412;2023-04-03T06:26:14;14.00;55.20
40868;DHT22;26586;50.708;22.412;2023-04-03T06:28:40;14.00;53.80
40868;DHT22;26586;50.708;22.412;2023-04-03T06:31:06;14.00;48.70
40868;DHT22;26586;50.708;22.412;2023-04-03T06:33:32;14.00;47.10
40868;DHT22;26586;50.708;22.412;2023-04-03T06:35:59;14.00;50.80
40868;DHT22;26586;50.708;22.412;2023-04-03T06:38:25;13.90;54.00
40868;DHT22;26586;50.708;22.412;2023-04-03T06:40:52;13.90;51.50
40868;DHT22;26586;50.708;22.412;2023-04-03T06:43:18;13.90;49.00
40868;DHT22;26586;50.708;22.412;2023-04-03T06:45:44;13.90;54.00
40868;DHT22;26586;50.708;22.412;2023-04-03T06:48:10;13.90;49.90
40868;DHT22;26586;50.708;22.412;2023-04-03T06:50:37;13.90;45.30
40868;DHT22;26586;50.708;22.412;2023-04-03T06:53:03;13.80;44.80
40868;DHT22;26586;50.708;22.412;2023-04-03T06:55:30;13.80;45.60
40868;DHT22;26586;50.708;22.412;2023-04-03T06:57:56;13.80;44.70
40868;DHT22;26586;50.708;22.412;2023-04-03T07:00:22;13.80;50.90
40868;DHT22;26586;50.708;22.412;2023-04-03T07:02:48;13.80;49.40
40868;DHT22;26586;50.708;22.412;2023-04-03T07:05:14;13.80;50.60
40868;DHT22;26586;50.708;22.412;2023-04-03T07:07:41;13.80;48.50
40868;DHT22;26586;50.708;22.412;2023-04-03T07:10:08;13.80;51.80
40868;DHT22;26586;50.708;22.412;2023-04-03T07:12:34;13.80;45.30
40868;DHT22;26586;50.708;22.412;2023-04-03T07:15:00;13.80;50.30
40868;DHT22;26586;50.708;22.412;2023-04-03T07:17:26;13.80;46.60
40868;DHT22;26586;50.708;22.412;2023-04-03T07:19:53;13.70;49.50
40868;DHT22;26586;50.708;22.412;2023-04-03T07:22:19;13.70;47.30
40868;DHT22;26586;50.708;22.412;2023-04-03T07:24:46;13.70;48.90
40868;DHT22;26586;50.708;22.412;2023-04-03T07:27:12;13.70;47.50
40868;DHT22;26586;50.708;22.412;2023-04-03T07:29:38;13.70;52.30
40868;DHT22;26586;50.708;22.412;2023-04-03T07:32:05;13.70;46.60
40868;DHT22;26586;50.708;22.412;2023-04-03T07:34:33;13.70;45.80
40868;DHT22;26586;50.708;22.412;2023-04-03T07:36:59;13.70;47.40
40868;DHT22;26586;50.708;22.412;2023-04-03T07:39:26;13.70;46.30
40868;DHT22;26586;50.708;22.412;2023-04-03T07:41:52;13.70;47.90
40868;DHT22;26586;50.708;22.412;2023-04-03T07:44:18;13.70;47.90
40868;DHT22;26586;50.708;22.412;2023-04-03T07:46:44;13.70;52.70
40868;DHT22;26586;50.708;22.412;2023-04-03T07:49:10;13.70;51.10
40868;DHT22;26586;50.708;22.412;2023-04-03T07:51:37;13.70;53.20
40868;DHT22;26586;50.708;22.412;2023-04-03T07:54:03;13.80;51.90
40868;DHT22;26586;50.708;22.412;2023-04-03T07:56:29;13.80;60.70
40868;DHT22;26586;50.708;22.412;2023-04-03T07:58:56;13.90;58.60
40868;DHT22;26586;50.708;22.412;2023-04-03T08:01:22;13.90;57.00
40868;DHT22;26586;50.708;22.412;2023-04-03T08:03:48;13.90;50.70
40868;DHT22;26586;50.708;22.412;2023-04-03T08:06:14;13.90;46.80
40868;DHT22;26586;50.708;22.412;2023-04-03T08:08:41;13.90;56.00
40868;DHT22;26586;50.708;22.412;2023-04-03T08:11:08;13.90;55.40
40868;DHT22;26586;50.708;22.412;2023-04-03T08:13:34;13.90;55.60
40868;DHT22;26586;50.708;22.412;2023-04-03T08:16:12;13.90;53.30
40868;DHT22;26586;50.708;22.412;2023-04-03T08:18:39;13.90;55.60
40868;DHT22;26586;50.708;22.412;2023-04-03T08:21:07;13.90;47.70
40868;DHT22;26586;50.708;22.412;2023-04-03T08:23:34;13.90;59.70
40868;DHT22;26586;50.708;22.412;2023-04-03T08:26:06;13.90;61.40
40868;DHT22;26586;50.708;22.412;2023-04-03T08:28:32;14.00;56.40
40868;DHT22;26586;50.708;22.412;2023-04-03T08:31:03;14.00;58.60
40868;DHT22;26586;50.708;22.412;2023-04-03T08:33:33;14.00;50.50
40868;DHT22;26586;50.708;22.412;2023-04-03T08:35:59;14.00;54.60
40868;DHT22;26586;50.708;22.412;2023-04-03T08:38:25;14.00;55.00
40868;DHT22;26586;50.708;22.412;2023-04-03T08:46:19;13.90;54.30
40868;DHT22;26586;50.708;22.412;2023-04-03T08:48:48;13.90;48.70
40868;DHT22;26586;50.708;22.412;2023-04-03T08:51:17;13.90;54.20
40868;DHT22;26586;50.708;22.412;2023-04-03T08:54:12;13.90;52.60
40868;DHT22;26586;50.708;22.412;2023-04-03T08:56:43;13.90;53.70
40868;DHT22;26586;50.708;22.412;2023-04-03T08:59:13;13.90;50.80
40868;DHT22;26586;50.708;22.412;2023-04-03T09:01:43;13.80;45.50
40868;DHT22;26586;50.708;22.412;2023-04-03T09:04:14;13.80;45.20
40868;DHT22;26586;50.708;22.412;2023-04-03T09:06:45;13.80;49.40
40868;DHT22;26586;50.708;22.412;2023-04-03T09:14:39;13.80;51.00
40868;DHT22;26586;50.708;22.412;2023-04-03T09:17:41;13.70;51.20
40868;DHT22;26586;50.708;22.412;2023-04-03T09:22:53;13.70;45.90
40868;DHT22;26586;50.708;22.412;2023-04-03T09:27:48;13.70;54.00
40868;DHT22;26586;50.708;22.412;2023-04-03T09:30:25;13.80;52.40
40868;DHT22;26586;50.708;22.412;2023-04-03T09:32:54;13.80;54.50
40868;DHT22;26586;50.708;22.412;2023-04-03T09:35:28;13.80;56.40
40868;DHT22;26586;50.708;22.412;2023-04-03T09:38:01;13.80;49.60
40868;DHT22;26586;50.708;22.412;2023-04-03T09:40:36;13.80;52.50
40868;DHT22;26586;50.708;22.412;2023-04-03T09:45:47;13.80;47.90
40868;DHT22;26586;50.708;22.412;2023-04-03T09:50:56;13.80;56.90
40868;DHT22;26586;50.708;22.412;2023-04-03T09:53:44;13.80;53.60
40868;DHT22;26586;50.708;22.412;2023-04-03T09:58:44;13.80;63.20
40868;DHT22;26586;50.708;22.412;2023-04-03T10:01:28;13.80;64.20
40868;DHT22;26586;50.708;22.412;2023-04-03T10:04:11;13.90;58.10
40868;DHT22;26586;50.708;22.412;2023-04-03T10:06:42;13.90;56.00
40868;DHT22;26586;50.708;22.412;2023-04-03T10:09:19;13.90;54.40
40868;DHT22;26586;50.708;22.412;2023-04-03T10:12:11;13.90;59.00
40868;DHT22;26586;50.708;22.412;2023-04-03T10:14:57;13.90;57.70
40868;DHT22;26586;50.708;22.412;2023-04-03T10:17:54;13.90;59.40
40868;DHT22;26586;50.708;22.412;2023-04-03T10:20:40;13.90;54.40
40868;DHT22;26586;50.708;22.412;2023-04-03T10:23:24;13.90;50.10
40868;DHT22;26586;50.708;22.412;2023-04-03T10:37:00;13.90;48.30
40868;DHT22;26586;50.708;22.412;2023-04-03T10:47:24;14.10;61.70
40868;DHT22;26586;50.708;22.412;2023-04-03T10:55:49;14.20;72.30
40868;DHT22;26586;50.708;22.412;2023-04-03T10:58:40;14.30;71.80
40868;DHT22;26586;50.708;22.412;2023-04-03T11:01:16;14.40;66.00
40868;DHT22;26586;50.708;22.412;2023-04-03T11:03:48;14.40;62.40
40868;DHT22;26586;50.708;22.412;2023-04-03T11:06:16;14.40;69.30
40868;DHT22;26586;50.708;22.412;2023-04-03T11:09:07;14.50;65.10
40868;DHT22;26586;50.708;22.412;2023-04-03T11:11:41;14.50;66.70
40868;DHT22;26586;50.708;22.412;2023-04-03T11:14:17;14.50;52.20
40868;DHT22;26586;50.708;22.412;2023-04-03T11:19:35;14.60;61.60
40868;DHT22;26586;50.708;22.412;2023-04-03T11:22:24;14.60;53.60
40868;DHT22;26586;50.708;22.412;2023-04-03T11:27:44;14.60;55.40
40868;DHT22;26586;50.708;22.412;2023-04-03T11:35:55;14.70;58.00
40868;DHT22;26586;50.708;22.412;2023-04-03T11:38:33;14.70;57.40
40868;DHT22;26586;50.708;22.412;2023-04-03T11:41:03;14.70;60.10
40868;DHT22;26586;50.708;22.412;2023-04-03T11:43:32;14.80;55.10
40868;DHT22;26586;50.708;22.412;2023-04-03T11:50:55;14.80;53.70
40868;DHT22;26586;50.708;22.412;2023-04-03T11:53:33;14.80;56.60
40868;DHT22;26586;50.708;22.412;2023-04-03T11:56:31;14.80;58.20
40868;DHT22;26586;50.708;22.412;2023-04-03T11:59:22;14.90;58.20
40868;DHT22;26586;50.708;22.412;2023-04-03T12:01:56;14.90;63.70
40868;DHT22;26586;50.708;22.412;2023-04-03T12:04:25;15.00;66.20
40868;DHT22;26586;50.708;22.412;2023-04-03T12:07:13;15.00;60.80
40868;DHT22;26586;50.708;22.412;2023-04-03T12:12:39;15.10;54.60
40868;DHT22;26586;50.708;22.412;2023-04-03T12:15:41;15.10;55.00
40868;DHT22;26586;50.708;22.412;2023-04-03T12:18:53;15.10;46.80
40868;DHT22;26586;50.708;22.412;2023-04-03T12:29:24;15.20;53.60
40868;DHT22;26586;50.708;22.412;2023-04-03T12:35:31;15.20;52.30
40868;DHT22;26586;50.708;22.412;2023-04-03T12:38:33;15.20;54.40
40868;DHT22;26586;50.708;22.412;2023-04-03T12:46:51;15.30;62.20
40868;DHT22;26586;50.708;22.412;2023-04-03T12:51:55;15.40;54.90
40868;DHT22;26586;50.708;22.412;2023-04-03T12:54:38;15.40;64.80
40868;DHT22;26586;50.708;22.412;2023-04-03T12:57:28;15.40;61.80
40868;DHT22;26586;50.708;22.412;2023-04-03T12:59:55;15.50;51.90
40868;DHT22;26586;50.708;22.412;2023-04-03T13:02:28;15.50;49.40
40868;DHT22;26586;50.708;22.412;2023-04-03T13:05:05;15.40;49.40
40868;DHT22;26586;50.708;22.412;2023-04-03T13:07:35;15.40;50.00
40868;DHT22;26586;50.708;22.412;2023-04-03T13:12:53;15.40;49.10
40868;DHT22;26586;50.708;22.412;2023-04-03T13:15:29;15.40;48.00
40868;DHT22;26586;50.708;22.412;2023-04-03T13:17:56;15.50;53.70
40868;DHT22;26586;50.708;22.412;2023-04-03T13:20:27;15.50;49.30
40868;DHT22;26586;50.708;22.412;2023-04-03T13:23:01;15.50;53.30
40868;DHT22;26586;50.708;22.412;2023-04-03T13:25:32;15.50;49.00
40868;DHT22;26586;50.708;22.412;2023-04-03T13:28:00;15.50;50.70
40868;DHT22;26586;50.708;22.412;2023-04-03T13:30:31;15.50;46.80
40868;DHT22;26586;50.708;22.412;2023-04-03T13:33:01;15.50;51.30
40868;DHT22;26586;50.708;22.412;2023-04-03T13:35:36;15.50;49.10
40868;DHT22;26586;50.708;22.412;2023-04-03T13:40:53;15.50;54.90
40868;DHT22;26586;50.708;22.412;2023-04-03T13:43:27;15.50;47.70
40868;DHT22;26586;50.708;22.412;2023-04-03T13:48:27;15.60;44.70
40868;DHT22;26586;50.708;22.412;2023-04-03T13:54:00;15.50;52.20
40868;DHT22;26586;50.708;22.412;2023-04-03T13:56:31;15.50;49.80
40868;DHT22;26586;50.708;22.412;2023-04-03T13:59:44;15.50;40.80
40868;DHT22;26586;50.708;22.412;2023-04-03T14:01:54;15.50;50.70
40868;DHT22;26586;50.708;22.412;2023-04-03T14:04:26;15.60;62.60
40868;DHT22;26586;50.708;22.412;2023-04-03T14:06:54;15.60;54.80
40868;DHT22;26586;50.708;22.412;2023-04-03T14:09:22;15.60;44.10
40868;DHT22;26586;50.708;22.412;2023-04-03T14:11:52;15.60;44.40
40868;DHT22;26586;50.708;22.412;2023-04-03T14:14:22;15.60;49.40
40868;DHT22;26586;50.708;22.412;2023-04-03T14:16:57;15.60;45.30
40868;DHT22;26586;50.708;22.412;2023-04-03T14:19:28;15.60;42.40
40868;DHT22;26586;50.708;22.412;2023-04-03T14:21:55;15.60;42.20
40868;DHT22;26586;50.708;22.412;2023-04-03T14:24:22;15.60;42.10
40868;DHT22;26586;50.708;22.412;2023-04-03T14:26:51;15.60;42.30
40868;DHT22;26586;50.708;22.412;2023-04-03T14:29:18;15.60;43.80
40868;DHT22;26586;50.708;22.412;2023-04-03T14:31:45;15.50;48.60
40868;DHT22;26586;50.708;22.412;2023-04-03T14:34:12;15.50;45.70
40868;DHT22;26586;50.708;22.412;2023-04-03T14:36:41;15.50;44.00
40868;DHT22;26586;50.708;22.412;2023-04-03T14:39:10;15.50;47.20
40868;DHT22;26586;50.708;22.412;2023-04-03T14:41:37;15.60;46.30
40868;DHT22;26586;50.708;22.412;2023-04-03T14:44:03;15.60;43.60
40868;DHT22;26586;50.708;22.412;2023-04-03T14:46:35;15.50;44.40
40868;DHT22;26586;50.708;22.412;2023-04-03T14:49:02;15.50;44.70
40868;DHT22;26586;50.708;22.412;2023-04-03T14:51:33;15.50;42.10
40868;DHT22;26586;50.708;22.412;2023-04-03T14:53:59;15.60;44.60
40868;DHT22;26586;50.708;22.412;2023-04-03T14:56:28;15.50;48.80
40868;DHT22;26586;50.708;22.412;2023-04-03T14:58:59;15.50;44.10
40868;DHT22;26586;50.708;22.412;2023-04-03T15:01:27;15.50;43.80
40868;DHT22;26586;50.708;22.412;2023-04-03T15:03:54;15.50;39.90
40868;DHT22;26586;50.708;22.412;2023-04-03T15:06:20;15.50;46.50
40868;DHT22;26586;50.708;22.412;2023-04-03T15:08:48;15.50;51.70
40868;DHT22;26586;50.708;22.412;2023-04-03T15:11:15;15.50;51.10
40868;DHT22;26586;50.708;22.412;2023-04-03T15:13:41;15.60;55.20
40868;DHT22;26586;50.708;22.412;2023-04-03T15:16:18;15.60;50.40
40868;DHT22;26586;50.708;22.412;2023-04-03T15:18:46;15.60;47.40
40868;DHT22;26586;50.708;22.412;2023-04-03T15:21:13;15.60;50.60
40868;DHT22;26586;50.708;22.412;2023-04-03T15:23:39;15.60;56.10
40868;DHT22;26586;50.708;22.412;2023-04-03T15:26:06;15.60;49.30
40868;DHT22;26586;50.708;22.412;2023-04-03T15:28:35;15.60;47.30
40868;DHT22;26586;50.708;22.412;2023-04-03T15:31:03;15.60;49.70
40868;DHT22;26586;50.708;22.412;2023-04-03T15:33:30;15.50;44.20
40868;DHT22;26586;50.708;22.412;2023-04-03T15:35:57;15.50;48.60
40868;DHT22;26586;50.708;22.412;2023-04-03T15:38:23;15.50;42.80
40868;DHT22;26586;50.708;22.412;2023-04-03T15:40:50;15.50;44.50
40868;DHT22;26586;50.708;22.412;2023-04-03T15:43:16;15.50;45.90
40868;DHT22;26586;50.708;22.412;2023-04-03T15:45:44;15.50;45.20
40868;DHT22;26586;50.708;22.412;2023-04-03T15:48:11;15.50;48.70
40868;DHT22;26586;50.708;22.412;2023-04-03T15:50:37;15.50;50.90
40868;DHT22;26586;50.708;22.412;2023-04-03T15:53:04;15.50;51.40
40868;DHT22;26586;50.708;22.412;2023-04-03T15:55:32;15.50;47.00
40868;DHT22;26586;50.708;22.412;2023-04-03T15:57:59;15.50;49.00
40868;DHT22;26586;50.708;22.412;2023-04-03T16:00:26;15.50;50.40
40868;DHT22;26586;50.708;22.412;2023-04-03T16:02:58;15.50;49.30
40868;DHT22;26586;50.708;22.412;2023-04-03T16:05:26;15.40;44.00
40868;DHT22;26586;50.708;22.412;2023-04-03T16:07:52;15.40;43.00
40868;DHT22;26586;50.708;22.412;2023-04-03T16:10:19;15.40;45.00
40868;DHT22;26586;50.708;22.412;2023-04-03T16:12:46;15.40;48.40
40868;DHT22;26586;50.708;22.412;2023-04-03T16:15:12;15.40;49.20
40868;DHT22;26586;50.708;22.412;2023-04-03T16:17:43;15.40;47.20
40868;DHT22;26586;50.708;22.412;2023-04-03T16:20:10;15.40;49.40
40868;DHT22;26586;50.708;22.412;2023-04-03T16:22:37;15.40;52.90
40868;DHT22;26586;50.708;22.412;2023-04-03T16:25:06;15.40;50.20
40868;DHT22;26586;50.708;22.412;2023-04-03T16:27:32;15.40;48.60
40868;DHT22;26586;50.708;22.412;2023-04-03T16:29:58;15.40;50.60
40868;DHT22;26586;50.708;22.412;2023-04-03T16:32:27;15.40;50.60
40868;DHT22;26586;50.708;22.412;2023-04-03T16:34:55;15.50;52.50
40868;DHT22;26586;50.708;22.412;2023-04-03T16:37:21;15.40;43.20
40868;DHT22;26586;50.708;22.412;2023-04-03T16:39:48;15.40;47.40
40868;DHT22;26586;50.708;22.412;2023-04-03T16:42:14;15.40;47.90
40868;DHT22;26586;50.708;22.412;2023-04-03T16:44:41;15.40;48.00
40868;DHT22;26586;50.708;22.412;2023-04-03T16:47:07;15.40;45.40
40868;DHT22;26586;50.708;22.412;2023-04-03T16:49:34;15.40;42.60
40868;DHT22;26586;50.708;22.412;2023-04-03T16:52:04;15.40;43.70
40868;DHT22;26586;50.708;22.412;2023-04-03T16:54:31;15.40;47.70
40868;DHT22;26586;50.708;22.412;2023-04-03T16:56:58;15.40;48.60
40868;DHT22;26586;50.708;22.412;2023-04-03T16:59:24;15.40;49.90
40868;DHT22;26586;50.708;22.412;2023-04-03T17:01:50;15.40;46.20
40868;DHT22;26586;50.708;22.412;2023-04-03T17:04:17;15.40;45.50
40868;DHT22;26586;50.708;22.412;2023-04-03T17:06:43;15.40;45.00
40868;DHT22;26586;50.708;22.412;2023-04-03T17:09:09;15.40;52.80
40868;DHT22;26586;50.708;22.412;2023-04-03T17:11:36;15.40;53.30
40868;DHT22;26586;50.708;22.412;2023-04-03T17:14:02;15.40;51.40